createdAt,value
2024-05-09T10:56:14.724Z,17.82
2024-05-09T10:58:41.465Z,18.08
2024-05-09T11:01:08.338Z,18.35
2024-05-09T11:03:36.118Z,18.78
2024-05-09T11:06:03.169Z,18.94
2024-05-09T11:08:31.651Z,19.10
2024-05-09T11:10:58.401Z,19.27
2024-05-09T11:13:32.141Z,19.51
2024-05-09T11:15:59.941Z,19.61
2024-05-09T11:18:30.680Z,20.17
2024-05-09T11:21:00.258Z,19.79
2024-05-09T11:23:27.802Z,20.59
2024-05-09T11:25:56.156Z,21.83
2024-05-09T11:28:23.756Z,21.68
2024-05-09T11:30:51.949Z,22.01
2024-05-09T11:33:19.481Z,22.95
2024-05-09T11:35:47.039Z,24.13
2024-05-09T11:38:14.104Z,25.76
2024-05-09T11:40:40.773Z,26.20
2024-05-09T11:43:07.452Z,26.72
2024-05-09T11:45:33.984Z,28.52
2024-05-09T11:48:00.821Z,28.56
2024-05-09T11:50:32.654Z,28.63
2024-05-09T11:53:02.005Z,29.81
2024-05-09T11:55:28.649Z,30.34
2024-05-09T11:57:55.818Z,30.63
2024-05-09T12:00:29.671Z,30.30
2024-05-09T12:03:03.185Z,30.07
2024-05-09T12:05:29.810Z,29.13
2024-05-09T12:07:56.463Z,29.47
2024-05-09T12:10:32.059Z,30.11
2024-05-09T12:13:01.080Z,31.26
2024-05-09T12:15:27.667Z,31.10
2024-05-09T12:17:54.994Z,30.83
2024-05-09T12:20:28.854Z,30.32
2024-05-09T12:23:02.277Z,31.79
2024-05-09T12:25:28.717Z,31.84
2024-05-09T12:27:55.319Z,32.17
2024-05-09T12:30:32.557Z,31.38
2024-05-09T12:33:04.275Z,28.96
2024-05-09T12:35:31.099Z,28.66
2024-05-09T12:37:57.609Z,29.74
2024-05-09T12:40:34.049Z,29.76
2024-05-09T12:43:03.891Z,30.19
2024-05-09T12:45:30.457Z,29.34
2024-05-09T12:47:57.075Z,30.30
2024-05-09T12:50:29.952Z,30.76
2024-05-09T12:52:59.460Z,30.62
2024-05-09T12:55:26.001Z,31.70
2024-05-09T12:57:52.901Z,31.38
2024-05-09T13:00:24.154Z,32.46
2024-05-09T13:02:57.817Z,31.66
2024-05-09T13:05:24.698Z,32.26
2024-05-09T13:07:51.331Z,31.82
2024-05-09T13:10:25.806Z,31.29
2024-05-09T13:12:58.942Z,30.87
2024-05-09T13:15:25.417Z,29.68
2024-05-09T13:17:51.895Z,29.66
2024-05-09T13:20:26.180Z,30.29
2024-05-09T13:23:01.280Z,29.94
2024-05-09T13:25:27.800Z,29.72
2024-05-09T13:27:54.285Z,29.43
2024-05-09T13:30:29.371Z,28.58
2024-05-09T13:33:05.143Z,27.69
2024-05-09T13:35:31.907Z,26.56
2024-05-09T13:37:58.483Z,26.66
2024-05-09T13:40:32.206Z,26.39
2024-05-09T13:43:01.346Z,26.95
2024-05-09T13:45:27.797Z,26.69
2024-05-09T13:47:54.396Z,26.10
2024-05-09T13:50:30.532Z,26.81
2024-05-09T13:53:00.648Z,26.23
2024-05-09T13:55:27.167Z,26.82
2024-05-09T13:57:53.962Z,26.31
2024-05-09T14:02:50.083Z,27.14
2024-05-09T14:05:16.954Z,26.93
2024-05-09T14:07:44.087Z,26.54
2024-05-09T14:10:19.774Z,26.42
2024-05-09T14:12:52.141Z,26.37
2024-05-09T14:15:18.655Z,27.76
2024-05-09T14:17:45.937Z,28.32
2024-05-09T14:20:16.626Z,28.63
2024-05-09T14:22:49.722Z,28.13
2024-05-09T14:25:16.348Z,28.73
2024-05-09T14:27:42.878Z,28.84
2024-05-09T14:30:14.993Z,28.48
2024-05-09T14:32:49.143Z,29.37
2024-05-09T14:35:15.830Z,30.00
2024-05-09T14:37:42.367Z,30.03
2024-05-09T14:40:14.767Z,27.99
2024-05-09T14:42:48.175Z,28.76
2024-05-09T14:45:14.588Z,30.12
2024-05-09T14:47:41.384Z,31.01
2024-05-09T14:50:11.136Z,31.30
2024-05-09T14:52:40.230Z,29.80
2024-05-09T14:55:08.566Z,30.38
2024-05-09T14:57:36.685Z,30.85
2024-05-09T15:00:05.158Z,30.52
2024-05-09T15:02:33.468Z,31.71
2024-05-09T15:05:00.104Z,29.28
2024-05-09T15:07:26.763Z,29.95
2024-05-09T15:09:53.289Z,29.71
2024-05-09T15:12:19.758Z,29.42
2024-05-09T15:14:46.302Z,28.65
2024-05-09T15:17:12.767Z,26.74
2024-05-09T15:19:39.522Z,26.31
2024-05-09T15:22:06.200Z,25.53
2024-05-09T15:24:32.737Z,24.43
2024-05-09T15:26:59.317Z,24.04
2024-05-09T15:29:25.811Z,23.04
2024-05-09T15:31:52.268Z,23.25
2024-05-09T15:34:18.936Z,22.75
2024-05-09T15:36:45.545Z,22.77
2024-05-09T15:39:12.032Z,22.43
2024-05-09T15:41:38.580Z,22.11
2024-05-09T15:44:05.080Z,22.17
2024-05-09T15:46:31.680Z,21.89
2024-05-09T15:48:58.445Z,21.80
2024-05-09T15:51:24.919Z,21.67
2024-05-09T15:53:51.390Z,21.51
2024-05-09T15:56:17.880Z,21.34
2024-05-09T15:58:44.443Z,21.69
2024-05-09T16:01:10.959Z,21.36
2024-05-09T16:03:37.650Z,21.21
2024-05-09T16:06:04.450Z,21.34
2024-05-09T16:08:30.986Z,21.24
2024-05-09T16:10:57.635Z,21.18
2024-05-09T16:13:24.307Z,20.89
2024-05-09T16:15:51.130Z,20.53
2024-05-09T16:18:17.905Z,20.80
2024-05-09T16:20:46.422Z,20.83
2024-05-09T16:23:14.949Z,20.63
2024-05-09T16:25:41.465Z,20.58
2024-05-09T16:28:10.488Z,20.59
2024-05-09T16:30:40.903Z,20.32
2024-05-09T16:33:08.631Z,20.25
2024-05-09T16:35:36.163Z,20.08
2024-05-09T16:38:03.559Z,20.26
2024-05-09T16:40:37.292Z,20.10
2024-05-09T16:43:07.431Z,20.05
2024-05-09T16:45:34.464Z,19.92
2024-05-09T16:48:01.548Z,19.91
2024-05-09T16:50:32.781Z,19.87
2024-05-09T16:53:01.768Z,19.77
2024-05-09T16:55:28.386Z,19.60
2024-05-09T16:57:55.688Z,19.59
2024-05-09T17:00:31.671Z,19.67
2024-05-09T17:03:07.298Z,19.54
2024-05-09T17:05:34.627Z,19.41
2024-05-09T17:08:01.536Z,19.46
2024-05-09T17:10:32.833Z,19.41
2024-05-09T17:13:02.346Z,19.35
2024-05-09T17:15:29.352Z,19.25
2024-05-09T17:17:56.367Z,19.24
2024-05-09T17:20:29.793Z,19.20
2024-05-09T17:23:02.085Z,19.11
2024-05-09T17:25:28.685Z,19.06
2024-05-09T17:27:55.664Z,18.97
2024-05-09T17:30:29.079Z,18.76
2024-05-09T17:33:02.180Z,18.61
2024-05-09T17:35:28.948Z,18.41
2024-05-09T17:37:55.508Z,18.26
2024-05-09T17:40:30.770Z,18.08
2024-05-09T17:43:01.066Z,17.98
2024-05-09T17:45:27.583Z,17.92
2024-05-09T17:47:54.192Z,17.77
2024-05-09T17:50:27.234Z,17.66
2024-05-09T17:53:00.318Z,17.56
2024-05-09T17:55:26.930Z,17.47
2024-05-09T17:57:53.556Z,17.33
2024-05-09T18:00:28.975Z,17.29
2024-05-09T18:03:03.645Z,17.14
2024-05-09T18:05:30.358Z,17.04
2024-05-09T18:07:57.239Z,16.79
2024-05-09T18:10:29.947Z,16.67
2024-05-09T18:13:02.346Z,16.67
2024-05-09T18:15:28.851Z,16.63
2024-05-09T18:17:55.563Z,16.47
2024-05-09T18:20:32.601Z,16.28
2024-05-09T18:23:07.397Z,16.16
2024-05-09T18:25:33.993Z,16.08
2024-05-09T18:28:02.700Z,16.03
2024-05-09T18:30:34.699Z,15.99
2024-05-09T18:33:03.663Z,15.79
2024-05-09T18:35:30.516Z,15.63
2024-05-09T18:37:57.086Z,15.46
2024-05-09T18:42:53.053Z,15.22
2024-05-09T18:45:19.582Z,15.13
2024-05-09T18:47:46.548Z,15.03
2024-05-09T18:50:20.451Z,14.85
2024-05-09T18:52:54.157Z,14.75
2024-05-09T18:55:20.686Z,14.68
2024-05-09T18:57:47.256Z,14.55
2024-05-09T19:00:23.068Z,14.45
2024-05-09T19:02:57.968Z,14.37
2024-05-09T19:05:24.901Z,14.29
2024-05-09T19:07:51.608Z,14.20
2024-05-09T19:10:22.712Z,14.09
2024-05-09T19:12:52.687Z,14.03
2024-05-09T19:15:19.172Z,13.94
2024-05-09T19:17:46.027Z,13.83
2024-05-09T19:20:24.674Z,13.76
2024-05-09T19:22:55.701Z,13.67
2024-05-09T19:25:22.208Z,13.57
2024-05-09T19:27:48.851Z,13.53
2024-05-09T19:30:25.055Z,13.46
2024-05-09T19:33:00.314Z,13.38
2024-05-09T19:35:26.838Z,13.32
2024-05-09T19:37:53.369Z,13.27
2024-05-09T19:40:28.522Z,13.21
2024-05-09T19:42:58.176Z,13.15
2024-05-09T19:45:24.730Z,13.05
2024-05-09T19:47:51.554Z,13.04
2024-05-09T19:50:26.443Z,12.97
2024-05-09T19:52:59.116Z,12.86
2024-05-09T19:55:25.975Z,12.84
2024-05-09T19:57:52.652Z,12.85
2024-05-09T20:00:26.037Z,12.81
2024-05-09T20:02:56.136Z,12.78
2024-05-09T20:05:23.696Z,12.84
2024-05-09T20:07:50.273Z,12.76
2024-05-09T20:10:23.507Z,12.70
2024-05-09T20:12:53.195Z,12.69
2024-05-09T20:15:19.740Z,12.63
2024-05-09T20:17:46.370Z,12.59
2024-05-09T20:20:23.505Z,12.54
2024-05-09T20:22:55.183Z,12.45
2024-05-09T20:25:21.734Z,12.45
2024-05-09T20:27:48.300Z,12.43
2024-05-09T20:30:21.578Z,12.39
2024-05-09T20:32:55.159Z,12.36
2024-05-09T20:35:21.666Z,12.29
2024-05-09T20:37:48.140Z,12.26
2024-05-09T20:40:21.242Z,12.21
2024-05-09T20:42:52.200Z,12.16
2024-05-09T20:45:18.702Z,12.07
2024-05-09T20:47:45.271Z,12.04
2024-05-09T20:50:20.594Z,11.99
2024-05-09T20:52:55.140Z,11.89
2024-05-09T20:55:21.709Z,11.85
2024-05-09T20:57:48.325Z,11.85
2024-05-09T21:00:18.895Z,11.80
2024-05-09T21:02:49.240Z,11.79
2024-05-09T21:05:15.903Z,11.72
2024-05-09T21:07:42.501Z,11.64
2024-05-09T21:10:15.564Z,11.55
2024-05-09T21:12:46.181Z,11.51
2024-05-09T21:15:12.718Z,11.37
2024-05-09T21:17:39.373Z,11.34
2024-05-09T21:20:11.651Z,11.30
2024-05-09T21:22:43.995Z,11.30
2024-05-09T21:25:10.493Z,11.30
2024-05-09T21:27:37.117Z,11.26
2024-05-09T21:30:05.856Z,11.22
2024-05-09T21:32:32.600Z,11.23
2024-05-09T21:34:59.142Z,11.16
2024-05-09T21:37:25.725Z,11.22
2024-05-09T21:39:52.232Z,11.20
2024-05-09T21:42:18.716Z,11.21
2024-05-09T21:44:45.276Z,11.23
2024-05-09T21:47:11.773Z,11.16
2024-05-09T21:49:38.460Z,11.12
2024-05-09T21:52:05.223Z,11.10
2024-05-09T21:54:31.780Z,11.07
2024-05-09T21:56:58.321Z,11.09
2024-05-09T21:59:24.866Z,11.03
2024-05-09T22:01:51.555Z,11.05
2024-05-09T22:04:18.169Z,11.02
2024-05-09T22:06:44.837Z,10.97
2024-05-09T22:09:11.352Z,10.94
2024-05-09T22:11:37.863Z,10.99
2024-05-09T22:14:04.382Z,10.96
2024-05-09T22:16:31.045Z,10.86
2024-05-09T22:18:57.693Z,10.80
2024-05-09T22:21:24.217Z,10.71
2024-05-09T22:23:50.670Z,10.72
2024-05-09T22:26:17.140Z,10.68
2024-05-09T22:28:43.635Z,10.68
2024-05-09T22:31:10.125Z,10.76
2024-05-09T22:33:36.892Z,10.72
2024-05-09T22:36:03.727Z,10.68
2024-05-09T22:38:30.222Z,10.69
2024-05-09T22:40:56.681Z,10.72
2024-05-09T22:43:24.874Z,10.77
2024-05-09T22:45:53.335Z,10.71
2024-05-09T22:48:20.139Z,10.74
2024-05-09T22:50:46.865Z,10.69
2024-05-09T22:53:13.428Z,10.62
2024-05-09T22:55:39.858Z,10.60
2024-05-09T22:58:06.562Z,10.48
2024-05-09T23:00:33.703Z,10.48
2024-05-09T23:03:01.625Z,10.40
2024-05-09T23:05:28.764Z,10.38
2024-05-09T23:07:55.453Z,10.38
2024-05-09T23:10:28.539Z,10.39
2024-05-09T23:13:01.616Z,10.34
2024-05-09T23:15:28.419Z,10.33
2024-05-09T23:17:55.155Z,10.35
2024-05-09T23:20:29.606Z,10.20
2024-05-09T23:23:03.136Z,10.19
2024-05-09T23:25:29.689Z,10.23
2024-05-09T23:27:56.230Z,10.22
2024-05-09T23:30:33.035Z,10.20
2024-05-09T23:33:04.605Z,10.21
2024-05-09T23:35:31.181Z,10.22
2024-05-09T23:37:57.654Z,10.12
2024-05-09T23:40:34.622Z,10.16
2024-05-09T23:43:05.272Z,10.19
2024-05-09T23:45:31.830Z,10.14
2024-05-09T23:47:58.513Z,10.20
2024-05-09T23:50:33.258Z,10.22
2024-05-09T23:53:03.032Z,10.27
2024-05-09T23:55:29.562Z,10.19
2024-05-09T23:57:56.142Z,9.99
